LFE weather

Los Fresnos Airport
Rio Bravo, Tamaulipas, Mexico

Public forecast

Using degrees Celsius for public forecast. Weather courtesy of forecast.io.

Closest aviation weather report (METAR) to Los Fresnos Airport

Report is more than 2 hours old.

Closest report is General Lucio Blanco International Airport, 12.8 nm (23.7 km) WNW. Retrieved 2019/10/17 02:48 UTC (4 hours ago):

MMRX 170248Z 34010KT 10SM OVC035 22/14 A3006 RMK SLP174 52035 9// 8/5//

Closest aviation forecast (TAF) to Los Fresnos Airport

Closest forecast is General Lucio Blanco International Airport, 12.8 nm (23.7 km) WNW. Retrieved 2019/10/17 06:00 UTC (48 minutes ago):

TAF MMRX 170552Z 1706/1806 34010KT P6SM OVC030 TEMPO 1706/1710 5SM -RA FM171800 34015KT P6SM BKN030 BKN080 BECMG 1803/1805 02006KT